sensor_id;sensor_type;location;lat;lon;timestamp;temperature;humidity
30628;DHT22;17394;50.890;4.724;2023-04-06T00:00:25;0.60;99.90
30628;DHT22;17394;50.890;4.724;2023-04-06T00:02:51;0.60;99.90
30628;DHT22;17394;50.890;4.724;2023-04-06T00:05:18;0.60;99.90
30628;DHT22;17394;50.890;4.724;2023-04-06T00:07:44;0.60;99.90
30628;DHT22;17394;50.890;4.724;2023-04-06T00:10:09;0.60;99.90
30628;DHT22;17394;50.890;4.724;2023-04-06T00:12:35;0.60;99.90
30628;DHT22;17394;50.890;4.724;2023-04-06T00:15:01;0.60;99.90
30628;DHT22;17394;50.890;4.724;2023-04-06T00:17:27;0.60;99.90
30628;DHT22;17394;50.890;4.724;2023-04-06T00:19:53;0.70;99.90
30628;DHT22;17394;50.890;4.724;2023-04-06T00:22:19;0.70;99.90
30628;DHT22;17394;50.890;4.724;2023-04-06T00:24:44;0.70;99.90
30628;DHT22;17394;50.890;4.724;2023-04-06T00:27:10;0.70;99.90
30628;DHT22;17394;50.890;4.724;2023-04-06T00:29:36;0.70;99.90
30628;DHT22;17394;50.890;4.724;2023-04-06T00:32:02;0.70;99.90
30628;DHT22;17394;50.890;4.724;2023-04-06T00:34:27;0.70;99.90
30628;DHT22;17394;50.890;4.724;2023-04-06T00:36:53;0.80;99.90
30628;DHT22;17394;50.890;4.724;2023-04-06T00:39:19;0.80;99.90
30628;DHT22;17394;50.890;4.724;2023-04-06T00:41:45;0.80;99.90
30628;DHT22;17394;50.890;4.724;2023-04-06T00:44:11;0.80;99.90
30628;DHT22;17394;50.890;4.724;2023-04-06T00:46:37;0.90;99.90
30628;DHT22;17394;50.890;4.724;2023-04-06T00:49:03;0.90;99.90
30628;DHT22;17394;50.890;4.724;2023-04-06T00:51:28;0.90;99.90
30628;DHT22;17394;50.890;4.724;2023-04-06T00:53:54;1.00;99.90
30628;DHT22;17394;50.890;4.724;2023-04-06T00:56:20;1.00;99.90
30628;DHT22;17394;50.890;4.724;2023-04-06T00:58:46;1.00;99.90
30628;DHT22;17394;50.890;4.724;2023-04-06T01:01:12;1.10;99.90
30628;DHT22;17394;50.890;4.724;2023-04-06T01:03:37;1.10;99.90
30628;DHT22;17394;50.890;4.724;2023-04-06T01:06:03;1.20;99.90
30628;DHT22;17394;50.890;4.724;2023-04-06T01:08:29;1.20;99.90
30628;DHT22;17394;50.890;4.724;2023-04-06T01:10:55;1.30;99.90
30628;DHT22;17394;50.890;4.724;2023-04-06T01:13:21;1.30;99.90
30628;DHT22;17394;50.890;4.724;2023-04-06T01:15:46;1.30;99.90
30628;DHT22;17394;50.890;4.724;2023-04-06T01:18:12;1.40;99.90
30628;DHT22;17394;50.890;4.724;2023-04-06T01:20:38;1.40;99.90
30628;DHT22;17394;50.890;4.724;2023-04-06T01:23:04;1.40;99.90
30628;DHT22;17394;50.890;4.724;2023-04-06T01:25:29;1.50;99.90
30628;DHT22;17394;50.890;4.724;2023-04-06T01:27:55;1.50;99.90
30628;DHT22;17394;50.890;4.724;2023-04-06T01:30:21;1.60;99.90
30628;DHT22;17394;50.890;4.724;2023-04-06T01:32:46;1.70;99.90
30628;DHT22;17394;50.890;4.724;2023-04-06T01:35:12;1.70;99.90
30628;DHT22;17394;50.890;4.724;2023-04-06T01:37:37;1.80;99.90
30628;DHT22;17394;50.890;4.724;2023-04-06T01:40:03;1.80;99.90
30628;DHT22;17394;50.890;4.724;2023-04-06T01:42:29;1.90;99.90
30628;DHT22;17394;50.890;4.724;2023-04-06T01:44:55;2.00;99.90
30628;DHT22;17394;50.890;4.724;2023-04-06T01:47:21;2.00;99.90
30628;DHT22;17394;50.890;4.724;2023-04-06T01:49:47;2.10;99.90
30628;DHT22;17394;50.890;4.724;2023-04-06T01:52:12;2.20;99.90
30628;DHT22;17394;50.890;4.724;2023-04-06T01:54:38;2.20;99.90
30628;DHT22;17394;50.890;4.724;2023-04-06T01:57:03;2.30;99.90
30628;DHT22;17394;50.890;4.724;2023-04-06T01:59:29;2.30;99.90
30628;DHT22;17394;50.890;4.724;2023-04-06T02:01:55;2.30;99.90
30628;DHT22;17394;50.890;4.724;2023-04-06T02:04:20;2.40;99.90
30628;DHT22;17394;50.890;4.724;2023-04-06T02:06:46;2.40;99.90
30628;DHT22;17394;50.890;4.724;2023-04-06T02:09:12;2.40;99.90
30628;DHT22;17394;50.890;4.724;2023-04-06T02:11:37;2.40;99.90
30628;DHT22;17394;50.890;4.724;2023-04-06T02:14:03;2.40;99.90
30628;DHT22;17394;50.890;4.724;2023-04-06T02:16:29;2.50;99.90
30628;DHT22;17394;50.890;4.724;2023-04-06T02:18:55;2.50;99.90
30628;DHT22;17394;50.890;4.724;2023-04-06T02:21:20;2.50;99.90
30628;DHT22;17394;50.890;4.724;2023-04-06T02:23:46;2.50;99.90
30628;DHT22;17394;50.890;4.724;2023-04-06T02:26:13;2.50;99.90
30628;DHT22;17394;50.890;4.724;2023-04-06T02:28:38;2.50;99.90
30628;DHT22;17394;50.890;4.724;2023-04-06T02:31:04;2.50;99.90
30628;DHT22;17394;50.890;4.724;2023-04-06T02:33:30;2.50;99.90
30628;DHT22;17394;50.890;4.724;2023-04-06T02:35:55;2.50;99.90
30628;DHT22;17394;50.890;4.724;2023-04-06T02:38:21;2.50;99.90
30628;DHT22;17394;50.890;4.724;2023-04-06T02:40:47;2.60;99.90
30628;DHT22;17394;50.890;4.724;2023-04-06T02:43:12;2.60;99.90
30628;DHT22;17394;50.890;4.724;2023-04-06T02:45:38;2.60;99.90
30628;DHT22;17394;50.890;4.724;2023-04-06T02:48:04;2.60;99.90
30628;DHT22;17394;50.890;4.724;2023-04-06T02:50:30;2.60;99.90
30628;DHT22;17394;50.890;4.724;2023-04-06T02:52:55;2.60;99.90
30628;DHT22;17394;50.890;4.724;2023-04-06T02:55:21;2.60;99.90
30628;DHT22;17394;50.890;4.724;2023-04-06T02:57:46;2.60;99.90
30628;DHT22;17394;50.890;4.724;2023-04-06T03:00:12;2.60;99.90
30628;DHT22;17394;50.890;4.724;2023-04-06T03:02:38;2.60;99.90
30628;DHT22;17394;50.890;4.724;2023-04-06T03:05:04;2.60;99.90
30628;DHT22;17394;50.890;4.724;2023-04-06T03:07:29;2.50;99.90
30628;DHT22;17394;50.890;4.724;2023-04-06T03:09:55;2.50;99.90
30628;DHT22;17394;50.890;4.724;2023-04-06T03:12:21;2.50;99.90
30628;DHT22;17394;50.890;4.724;2023-04-06T03:14:47;2.50;99.90
30628;DHT22;17394;50.890;4.724;2023-04-06T03:17:15;2.60;99.90
30628;DHT22;17394;50.890;4.724;2023-04-06T03:19:41;2.50;99.90
30628;DHT22;17394;50.890;4.724;2023-04-06T03:22:06;2.60;99.90
30628;DHT22;17394;50.890;4.724;2023-04-06T03:24:32;2.60;99.90
30628;DHT22;17394;50.890;4.724;2023-04-06T03:26:58;2.70;99.90
30628;DHT22;17394;50.890;4.724;2023-04-06T03:29:23;2.70;99.90
30628;DHT22;17394;50.890;4.724;2023-04-06T03:31:49;2.80;99.90
30628;DHT22;17394;50.890;4.724;2023-04-06T03:34:15;2.80;99.90
30628;DHT22;17394;50.890;4.724;2023-04-06T03:36:40;2.80;99.90
30628;DHT22;17394;50.890;4.724;2023-04-06T03:39:06;2.90;99.90
30628;DHT22;17394;50.890;4.724;2023-04-06T03:41:32;2.90;99.90
30628;DHT22;17394;50.890;4.724;2023-04-06T03:43:57;2.90;99.90
30628;DHT22;17394;50.890;4.724;2023-04-06T03:46:23;2.90;99.90
30628;DHT22;17394;50.890;4.724;2023-04-06T03:48:49;3.00;99.90
30628;DHT22;17394;50.890;4.724;2023-04-06T03:51:14;3.00;99.90
30628;DHT22;17394;50.890;4.724;2023-04-06T03:53:42;2.90;99.90
30628;DHT22;17394;50.890;4.724;2023-04-06T03:56:08;3.00;99.90
30628;DHT22;17394;50.890;4.724;2023-04-06T03:58:33;3.00;99.90
30628;DHT22;17394;50.890;4.724;2023-04-06T04:00:59;3.10;99.90
30628;DHT22;17394;50.890;4.724;2023-04-06T04:03:25;3.10;99.90
30628;DHT22;17394;50.890;4.724;2023-04-06T04:05:53;3.10;99.90
30628;DHT22;17394;50.890;4.724;2023-04-06T04:08:18;3.10;99.90
30628;DHT22;17394;50.890;4.724;2023-04-06T04:10:44;3.20;99.90
30628;DHT22;17394;50.890;4.724;2023-04-06T04:13:10;3.20;99.90
30628;DHT22;17394;50.890;4.724;2023-04-06T04:15:35;3.20;99.90
30628;DHT22;17394;50.890;4.724;2023-04-06T04:18:01;3.30;99.90
30628;DHT22;17394;50.890;4.724;2023-04-06T04:20:27;3.30;99.90
30628;DHT22;17394;50.890;4.724;2023-04-06T04:22:53;3.40;99.90
30628;DHT22;17394;50.890;4.724;2023-04-06T04:25:19;3.40;99.90
30628;DHT22;17394;50.890;4.724;2023-04-06T04:27:45;3.50;99.90
30628;DHT22;17394;50.890;4.724;2023-04-06T04:30:11;3.50;99.90
30628;DHT22;17394;50.890;4.724;2023-04-06T04:32:36;3.60;99.90
30628;DHT22;17394;50.890;4.724;2023-04-06T04:35:02;3.60;99.90
30628;DHT22;17394;50.890;4.724;2023-04-06T04:37:28;3.60;99.90
30628;DHT22;17394;50.890;4.724;2023-04-06T04:39:53;3.60;99.90
30628;DHT22;17394;50.890;4.724;2023-04-06T04:42:19;3.70;99.90
30628;DHT22;17394;50.890;4.724;2023-04-06T04:44:45;3.70;99.90
30628;DHT22;17394;50.890;4.724;2023-04-06T04:47:11;3.80;99.90
30628;DHT22;17394;50.890;4.724;2023-04-06T04:49:37;3.80;99.90
30628;DHT22;17394;50.890;4.724;2023-04-06T04:52:02;3.80;99.90
30628;DHT22;17394;50.890;4.724;2023-04-06T04:54:28;3.90;99.90
30628;DHT22;17394;50.890;4.724;2023-04-06T04:56:54;3.90;99.90
30628;DHT22;17394;50.890;4.724;2023-04-06T04:59:20;3.90;99.90
30628;DHT22;17394;50.890;4.724;2023-04-06T05:01:45;3.90;99.90
30628;DHT22;17394;50.890;4.724;2023-04-06T05:04:11;4.00;99.90
30628;DHT22;17394;50.890;4.724;2023-04-06T05:06:37;4.00;99.90
30628;DHT22;17394;50.890;4.724;2023-04-06T05:09:02;4.10;99.90
30628;DHT22;17394;50.890;4.724;2023-04-06T05:11:28;4.10;99.90
30628;DHT22;17394;50.890;4.724;2023-04-06T05:13:54;4.20;99.90
30628;DHT22;17394;50.890;4.724;2023-04-06T05:16:19;4.20;99.90
30628;DHT22;17394;50.890;4.724;2023-04-06T05:18:47;4.30;99.90
30628;DHT22;17394;50.890;4.724;2023-04-06T05:21:12;4.30;99.90
30628;DHT22;17394;50.890;4.724;2023-04-06T05:23:38;4.30;99.90
30628;DHT22;17394;50.890;4.724;2023-04-06T05:26:04;4.40;99.90
30628;DHT22;17394;50.890;4.724;2023-04-06T05:28:30;4.40;99.90
30628;DHT22;17394;50.890;4.724;2023-04-06T05:30:56;4.50;99.90
30628;DHT22;17394;50.890;4.724;2023-04-06T05:33:22;4.50;99.90
30628;DHT22;17394;50.890;4.724;2023-04-06T05:35:48;4.60;99.90
30628;DHT22;17394;50.890;4.724;2023-04-06T05:38:14;4.70;99.90
30628;DHT22;17394;50.890;4.724;2023-04-06T05:40:40;4.80;99.90
30628;DHT22;17394;50.890;4.724;2023-04-06T05:43:06;4.80;99.90
30628;DHT22;17394;50.890;4.724;2023-04-06T05:45:32;4.90;99.90
30628;DHT22;17394;50.890;4.724;2023-04-06T05:47:58;4.90;99.90
30628;DHT22;17394;50.890;4.724;2023-04-06T05:50:24;5.00;99.90
30628;DHT22;17394;50.890;4.724;2023-04-06T05:52:50;5.00;99.90
30628;DHT22;17394;50.890;4.724;2023-04-06T05:55:16;5.10;99.90
30628;DHT22;17394;50.890;4.724;2023-04-06T05:57:41;5.20;99.90
30628;DHT22;17394;50.890;4.724;2023-04-06T06:00:07;5.30;99.90
30628;DHT22;17394;50.890;4.724;2023-04-06T06:02:35;5.40;99.90
30628;DHT22;17394;50.890;4.724;2023-04-06T06:05:00;5.50;99.90
30628;DHT22;17394;50.890;4.724;2023-04-06T06:07:26;5.60;99.90
30628;DHT22;17394;50.890;4.724;2023-04-06T06:09:52;5.70;99.90
30628;DHT22;17394;50.890;4.724;2023-04-06T06:12:18;5.90;99.90
30628;DHT22;17394;50.890;4.724;2023-04-06T06:14:43;6.00;99.90
30628;DHT22;17394;50.890;4.724;2023-04-06T06:17:09;6.10;99.90
30628;DHT22;17394;50.890;4.724;2023-04-06T06:19:35;6.30;99.90
30628;DHT22;17394;50.890;4.724;2023-04-06T06:22:00;6.40;99.90
30628;DHT22;17394;50.890;4.724;2023-04-06T06:24:28;6.50;99.90
30628;DHT22;17394;50.890;4.724;2023-04-06T06:26:53;6.60;99.90
30628;DHT22;17394;50.890;4.724;2023-04-06T06:29:19;6.80;99.90
30628;DHT22;17394;50.890;4.724;2023-04-06T06:31:45;6.90;99.90
30628;DHT22;17394;50.890;4.724;2023-04-06T06:34:10;7.00;99.90
30628;DHT22;17394;50.890;4.724;2023-04-06T06:36:38;7.10;99.90
30628;DHT22;17394;50.890;4.724;2023-04-06T06:39:04;7.20;99.90
30628;DHT22;17394;50.890;4.724;2023-04-06T06:41:29;7.30;99.90
30628;DHT22;17394;50.890;4.724;2023-04-06T06:43:55;7.40;99.90
30628;DHT22;17394;50.890;4.724;2023-04-06T06:46:21;7.40;99.90
30628;DHT22;17394;50.890;4.724;2023-04-06T06:48:46;7.50;99.90
30628;DHT22;17394;50.890;4.724;2023-04-06T06:51:12;7.50;99.90
30628;DHT22;17394;50.890;4.724;2023-04-06T06:53:38;7.50;99.90
30628;DHT22;17394;50.890;4.724;2023-04-06T06:56:03;7.60;99.90
30628;DHT22;17394;50.890;4.724;2023-04-06T06:58:29;7.60;99.90
30628;DHT22;17394;50.890;4.724;2023-04-06T07:00:55;7.60;99.90
30628;DHT22;17394;50.890;4.724;2023-04-06T07:03:21;7.60;99.90
30628;DHT22;17394;50.890;4.724;2023-04-06T07:05:47;7.60;99.90
30628;DHT22;17394;50.890;4.724;2023-04-06T07:08:18;7.60;99.90
30628;DHT22;17394;50.890;4.724;2023-04-06T07:10:44;7.60;99.90
30628;DHT22;17394;50.890;4.724;2023-04-06T07:13:10;7.70;99.90
30628;DHT22;17394;50.890;4.724;2023-04-06T07:15:36;7.70;99.90
30628;DHT22;17394;50.890;4.724;2023-04-06T07:18:02;7.80;99.90
30628;DHT22;17394;50.890;4.724;2023-04-06T07:20:28;7.90;99.90
30628;DHT22;17394;50.890;4.724;2023-04-06T07:22:53;7.90;99.90
30628;DHT22;17394;50.890;4.724;2023-04-06T07:25:20;7.90;99.90
30628;DHT22;17394;50.890;4.724;2023-04-06T07:27:45;7.90;99.90
30628;DHT22;17394;50.890;4.724;2023-04-06T07:30:11;7.80;99.90
30628;DHT22;17394;50.890;4.724;2023-04-06T07:32:37;7.70;99.90
30628;DHT22;17394;50.890;4.724;2023-04-06T07:35:03;7.70;99.90
30628;DHT22;17394;50.890;4.724;2023-04-06T07:37:29;7.60;99.90
30628;DHT22;17394;50.890;4.724;2023-04-06T07:39:54;7.50;99.90
30628;DHT22;17394;50.890;4.724;2023-04-06T07:42:20;7.50;99.90
30628;DHT22;17394;50.890;4.724;2023-04-06T07:44:46;7.40;99.90
30628;DHT22;17394;50.890;4.724;2023-04-06T07:47:11;7.50;99.90
30628;DHT22;17394;50.890;4.724;2023-04-06T07:49:37;7.50;99.90
30628;DHT22;17394;50.890;4.724;2023-04-06T07:52:03;7.50;99.90
30628;DHT22;17394;50.890;4.724;2023-04-06T07:54:28;7.50;99.90
30628;DHT22;17394;50.890;4.724;2023-04-06T07:56:57;7.60;99.90
30628;DHT22;17394;50.890;4.724;2023-04-06T07:59:22;7.60;99.90
30628;DHT22;17394;50.890;4.724;2023-04-06T08:01:48;7.60;99.90
30628;DHT22;17394;50.890;4.724;2023-04-06T08:04:14;7.70;99.90
30628;DHT22;17394;50.890;4.724;2023-04-06T08:06:40;7.90;99.90
30628;DHT22;17394;50.890;4.724;2023-04-06T08:09:06;8.00;99.90
30628;DHT22;17394;50.890;4.724;2023-04-06T08:11:32;8.20;99.90
30628;DHT22;17394;50.890;4.724;2023-04-06T08:13:57;8.30;99.90
30628;DHT22;17394;50.890;4.724;2023-04-06T08:16:24;8.40;99.90
30628;DHT22;17394;50.890;4.724;2023-04-06T08:18:49;8.50;99.90
30628;DHT22;17394;50.890;4.724;2023-04-06T08:21:15;8.60;99.90
30628;DHT22;17394;50.890;4.724;2023-04-06T08:23:41;8.60;99.90
30628;DHT22;17394;50.890;4.724;2023-04-06T08:26:07;8.70;99.90
30628;DHT22;17394;50.890;4.724;2023-04-06T08:28:33;8.70;99.90
30628;DHT22;17394;50.890;4.724;2023-04-06T08:31:03;8.80;99.90
30628;DHT22;17394;50.890;4.724;2023-04-06T08:33:29;8.90;99.90
30628;DHT22;17394;50.890;4.724;2023-04-06T08:35:55;8.90;99.90
30628;DHT22;17394;50.890;4.724;2023-04-06T08:38:20;9.00;99.90
30628;DHT22;17394;50.890;4.724;2023-04-06T08:40:46;9.10;99.90
30628;DHT22;17394;50.890;4.724;2023-04-06T08:43:13;9.10;99.90
30628;DHT22;17394;50.890;4.724;2023-04-06T08:45:40;9.00;99.90
30628;DHT22;17394;50.890;4.724;2023-04-06T08:48:07;9.00;99.90
30628;DHT22;17394;50.890;4.724;2023-04-06T08:50:33;9.00;99.90
30628;DHT22;17394;50.890;4.724;2023-04-06T08:52:59;9.00;99.90
30628;DHT22;17394;50.890;4.724;2023-04-06T08:55:26;9.00;99.90
30628;DHT22;17394;50.890;4.724;2023-04-06T08:57:52;9.00;99.90
30628;DHT22;17394;50.890;4.724;2023-04-06T09:00:21;9.00;99.90
30628;DHT22;17394;50.890;4.724;2023-04-06T09:02:49;9.10;99.90
30628;DHT22;17394;50.890;4.724;2023-04-06T09:05:14;9.20;99.90
30628;DHT22;17394;50.890;4.724;2023-04-06T09:07:40;9.30;99.90
30628;DHT22;17394;50.890;4.724;2023-04-06T09:10:07;9.30;99.90
30628;DHT22;17394;50.890;4.724;2023-04-06T09:12:33;9.30;99.90
30628;DHT22;17394;50.890;4.724;2023-04-06T09:14:59;9.30;99.90
30628;DHT22;17394;50.890;4.724;2023-04-06T09:17:25;9.30;99.90
30628;DHT22;17394;50.890;4.724;2023-04-06T09:19:52;9.30;99.90
30628;DHT22;17394;50.890;4.724;2023-04-06T09:22:17;9.30;99.90
30628;DHT22;17394;50.890;4.724;2023-04-06T09:24:45;9.40;99.90
30628;DHT22;17394;50.890;4.724;2023-04-06T09:27:10;9.40;99.90
30628;DHT22;17394;50.890;4.724;2023-04-06T09:29:36;9.50;99.90
30628;DHT22;17394;50.890;4.724;2023-04-06T09:32:05;9.60;99.90
30628;DHT22;17394;50.890;4.724;2023-04-06T09:34:32;9.60;99.90
30628;DHT22;17394;50.890;4.724;2023-04-06T09:36:58;9.70;99.90
30628;DHT22;17394;50.890;4.724;2023-04-06T09:39:24;9.80;99.90
30628;DHT22;17394;50.890;4.724;2023-04-06T09:41:50;9.80;99.90
30628;DHT22;17394;50.890;4.724;2023-04-06T09:44:16;9.80;99.90
30628;DHT22;17394;50.890;4.724;2023-04-06T09:46:42;9.90;99.90
30628;DHT22;17394;50.890;4.724;2023-04-06T09:49:08;9.90;99.90
30628;DHT22;17394;50.890;4.724;2023-04-06T09:51:38;9.90;99.90
30628;DHT22;17394;50.890;4.724;2023-04-06T09:54:05;9.90;99.90
30628;DHT22;17394;50.890;4.724;2023-04-06T09:56:33;9.90;99.90
30628;DHT22;17394;50.890;4.724;2023-04-06T09:59:02;10.00;99.90
30628;DHT22;17394;50.890;4.724;2023-04-06T10:01:32;9.90;99.90
30628;DHT22;17394;50.890;4.724;2023-04-06T10:04:18;9.90;99.90
30628;DHT22;17394;50.890;4.724;2023-04-06T10:06:46;10.00;99.90
30628;DHT22;17394;50.890;4.724;2023-04-06T10:09:17;9.90;99.90
30628;DHT22;17394;50.890;4.724;2023-04-06T10:11:43;9.90;99.90
30628;DHT22;17394;50.890;4.724;2023-04-06T10:14:10;9.80;99.90
30628;DHT22;17394;50.890;4.724;2023-04-06T10:16:37;9.80;99.90
30628;DHT22;17394;50.890;4.724;2023-04-06T10:19:16;9.70;99.90
30628;DHT22;17394;50.890;4.724;2023-04-06T10:21:42;9.70;99.90
30628;DHT22;17394;50.890;4.724;2023-04-06T10:24:09;9.60;99.90
30628;DHT22;17394;50.890;4.724;2023-04-06T10:26:36;9.60;99.90
30628;DHT22;17394;50.890;4.724;2023-04-06T10:29:05;9.60;99.90
30628;DHT22;17394;50.890;4.724;2023-04-06T10:31:31;9.50;99.90
30628;DHT22;17394;50.890;4.724;2023-04-06T10:33:58;9.40;99.90
30628;DHT22;17394;50.890;4.724;2023-04-06T10:36:25;9.40;99.90
30628;DHT22;17394;50.890;4.724;2023-04-06T10:39:02;9.30;99.90
30628;DHT22;17394;50.890;4.724;2023-04-06T10:41:32;9.30;99.90
30628;DHT22;17394;50.890;4.724;2023-04-06T10:43:58;9.30;99.90
30628;DHT22;17394;50.890;4.724;2023-04-06T10:46:25;9.20;99.90
30628;DHT22;17394;50.890;4.724;2023-04-06T10:48:51;9.20;99.90
30628;DHT22;17394;50.890;4.724;2023-04-06T10:51:17;9.20;99.90
30628;DHT22;17394;50.890;4.724;2023-04-06T10:53:43;9.30;99.90
30628;DHT22;17394;50.890;4.724;2023-04-06T10:56:10;9.30;99.90
30628;DHT22;17394;50.890;4.724;2023-04-06T10:58:43;9.40;99.90
30628;DHT22;17394;50.890;4.724;2023-04-06T11:01:10;9.40;99.90
30628;DHT22;17394;50.890;4.724;2023-04-06T11:03:46;9.40;99.90
30628;DHT22;17394;50.890;4.724;2023-04-06T11:06:25;9.40;99.90
30628;DHT22;17394;50.890;4.724;2023-04-06T11:08:52;9.50;99.90
30628;DHT22;17394;50.890;4.724;2023-04-06T11:11:19;9.50;99.90
30628;DHT22;17394;50.890;4.724;2023-04-06T11:13:46;9.60;99.90
30628;DHT22;17394;50.890;4.724;2023-04-06T11:16:17;9.60;99.90
30628;DHT22;17394;50.890;4.724;2023-04-06T11:18:50;9.60;99.90
30628;DHT22;17394;50.890;4.724;2023-04-06T11:21:16;9.70;99.90
30628;DHT22;17394;50.890;4.724;2023-04-06T11:23:42;9.70;99.90
30628;DHT22;17394;50.890;4.724;2023-04-06T11:26:12;9.70;99.90
30628;DHT22;17394;50.890;4.724;2023-04-06T11:28:40;9.70;99.90
30628;DHT22;17394;50.890;4.724;2023-04-06T11:31:06;9.70;99.90
30628;DHT22;17394;50.890;4.724;2023-04-06T11:33:36;9.70;99.90
30628;DHT22;17394;50.890;4.724;2023-04-06T11:36:02;9.70;99.90
30628;DHT22;17394;50.890;4.724;2023-04-06T11:38:29;9.60;99.90
30628;DHT22;17394;50.890;4.724;2023-04-06T11:40:55;9.40;99.90
30628;DHT22;17394;50.890;4.724;2023-04-06T11:43:28;9.40;99.90
30628;DHT22;17394;50.890;4.724;2023-04-06T11:45:59;9.40;99.90
30628;DHT22;17394;50.890;4.724;2023-04-06T11:48:28;9.40;99.90
30628;DHT22;17394;50.890;4.724;2023-04-06T11:50:57;9.30;99.90
30628;DHT22;17394;50.890;4.724;2023-04-06T11:53:24;9.40;99.90
30628;DHT22;17394;50.890;4.724;2023-04-06T11:55:50;9.50;99.90
30628;DHT22;17394;50.890;4.724;2023-04-06T11:58:16;9.60;99.90
30628;DHT22;17394;50.890;4.724;2023-04-06T12:00:42;9.60;99.90
30628;DHT22;17394;50.890;4.724;2023-04-06T12:03:11;9.60;99.90
30628;DHT22;17394;50.890;4.724;2023-04-06T12:05:37;9.50;99.90
30628;DHT22;17394;50.890;4.724;2023-04-06T12:08:03;9.60;99.90
30628;DHT22;17394;50.890;4.724;2023-04-06T12:10:29;9.60;99.90
30628;DHT22;17394;50.890;4.724;2023-04-06T12:12:55;9.60;99.90
30628;DHT22;17394;50.890;4.724;2023-04-06T12:15:21;9.70;99.90
30628;DHT22;17394;50.890;4.724;2023-04-06T12:17:47;9.70;99.90
30628;DHT22;17394;50.890;4.724;2023-04-06T12:20:13;9.70;99.90
30628;DHT22;17394;50.890;4.724;2023-04-06T12:22:39;9.70;99.90
30628;DHT22;17394;50.890;4.724;2023-04-06T12:25:05;9.80;99.90
30628;DHT22;17394;50.890;4.724;2023-04-06T12:27:32;9.80;99.90
30628;DHT22;17394;50.890;4.724;2023-04-06T12:29:58;9.80;99.90
30628;DHT22;17394;50.890;4.724;2023-04-06T12:32:23;9.80;99.90
30628;DHT22;17394;50.890;4.724;2023-04-06T12:34:51;9.90;99.90
30628;DHT22;17394;50.890;4.724;2023-04-06T12:37:17;10.00;99.90
30628;DHT22;17394;50.890;4.724;2023-04-06T12:39:43;10.00;99.90
30628;DHT22;17394;50.890;4.724;2023-04-06T12:42:10;10.10;99.90
30628;DHT22;17394;50.890;4.724;2023-04-06T12:44:36;10.10;99.90
30628;DHT22;17394;50.890;4.724;2023-04-06T12:47:02;10.20;99.90
30628;DHT22;17394;50.890;4.724;2023-04-06T12:49:31;10.20;99.90
30628;DHT22;17394;50.890;4.724;2023-04-06T12:51:57;10.30;99.90
30628;DHT22;17394;50.890;4.724;2023-04-06T12:54:23;10.30;99.90
30628;DHT22;17394;50.890;4.724;2023-04-06T12:56:48;10.20;99.90
30628;DHT22;17394;50.890;4.724;2023-04-06T12:59:14;10.20;99.90
30628;DHT22;17394;50.890;4.724;2023-04-06T13:01:40;10.20;99.90
30628;DHT22;17394;50.890;4.724;2023-04-06T13:04:05;10.30;99.90
30628;DHT22;17394;50.890;4.724;2023-04-06T13:06:31;10.30;99.90
30628;DHT22;17394;50.890;4.724;2023-04-06T13:08:57;10.40;99.90
30628;DHT22;17394;50.890;4.724;2023-04-06T13:11:23;10.40;99.90
30628;DHT22;17394;50.890;4.724;2023-04-06T13:13:50;10.30;99.90
30628;DHT22;17394;50.890;4.724;2023-04-06T13:16:15;10.30;99.90
30628;DHT22;17394;50.890;4.724;2023-04-06T13:18:41;10.20;99.90
30628;DHT22;17394;50.890;4.724;2023-04-06T13:21:07;10.20;99.90
30628;DHT22;17394;50.890;4.724;2023-04-06T13:23:33;10.10;99.90
30628;DHT22;17394;50.890;4.724;2023-04-06T13:26:00;10.10;99.90
30628;DHT22;17394;50.890;4.724;2023-04-06T13:28:27;10.00;99.90
30628;DHT22;17394;50.890;4.724;2023-04-06T13:30:53;9.90;99.90
30628;DHT22;17394;50.890;4.724;2023-04-06T13:33:19;9.80;99.90
30628;DHT22;17394;50.890;4.724;2023-04-06T13:35:45;9.80;99.90
30628;DHT22;17394;50.890;4.724;2023-04-06T13:38:12;9.80;99.90
30628;DHT22;17394;50.890;4.724;2023-04-06T13:40:41;9.70;99.90
30628;DHT22;17394;50.890;4.724;2023-04-06T13:43:07;9.70;99.90
30628;DHT22;17394;50.890;4.724;2023-04-06T13:45:33;9.60;99.90
30628;DHT22;17394;50.890;4.724;2023-04-06T13:47:59;9.50;99.90
30628;DHT22;17394;50.890;4.724;2023-04-06T13:50:25;9.50;99.90
30628;DHT22;17394;50.890;4.724;2023-04-06T13:52:51;9.50;99.90
30628;DHT22;17394;50.890;4.724;2023-04-06T13:55:16;9.50;99.90
30628;DHT22;17394;50.890;4.724;2023-04-06T13:57:42;9.60;99.90
30628;DHT22;17394;50.890;4.724;2023-04-06T14:00:08;9.60;99.90
30628;DHT22;17394;50.890;4.724;2023-04-06T14:02:34;9.60;99.90
30628;DHT22;17394;50.890;4.724;2023-04-06T14:05:00;9.60;99.90
30628;DHT22;17394;50.890;4.724;2023-04-06T14:07:26;9.70;99.90
30628;DHT22;17394;50.890;4.724;2023-04-06T14:09:51;9.70;99.90
30628;DHT22;17394;50.890;4.724;2023-04-06T14:12:17;9.70;99.90
30628;DHT22;17394;50.890;4.724;2023-04-06T14:14:43;9.70;99.90
30628;DHT22;17394;50.890;4.724;2023-04-06T14:17:09;9.60;99.90
30628;DHT22;17394;50.890;4.724;2023-04-06T14:19:38;9.60;99.90
30628;DHT22;17394;50.890;4.724;2023-04-06T14:22:04;9.60;99.90
30628;DHT22;17394;50.890;4.724;2023-04-06T14:24:30;9.60;99.90
30628;DHT22;17394;50.890;4.724;2023-04-06T14:26:56;9.70;99.90
30628;DHT22;17394;50.890;4.724;2023-04-06T14:29:22;9.70;99.90
30628;DHT22;17394;50.890;4.724;2023-04-06T14:31:48;9.80;99.90
30628;DHT22;17394;50.890;4.724;2023-04-06T14:34:14;9.80;99.90
30628;DHT22;17394;50.890;4.724;2023-04-06T14:36:41;9.90;99.90
30628;DHT22;17394;50.890;4.724;2023-04-06T14:39:07;9.90;99.90
30628;DHT22;17394;50.890;4.724;2023-04-06T14:41:33;9.90;99.90
30628;DHT22;17394;50.890;4.724;2023-04-06T14:44:00;9.80;99.90
30628;DHT22;17394;50.890;4.724;2023-04-06T14:46:26;9.80;99.90
30628;DHT22;17394;50.890;4.724;2023-04-06T14:48:55;9.80;99.90
30628;DHT22;17394;50.890;4.724;2023-04-06T14:51:21;9.70;99.90
30628;DHT22;17394;50.890;4.724;2023-04-06T14:53:47;9.70;99.90
30628;DHT22;17394;50.890;4.724;2023-04-06T14:56:18;9.60;99.90
30628;DHT22;17394;50.890;4.724;2023-04-06T14:58:43;9.50;99.90
30628;DHT22;17394;50.890;4.724;2023-04-06T15:01:09;9.50;99.90
30628;DHT22;17394;50.890;4.724;2023-04-06T15:03:35;9.40;99.90
30628;DHT22;17394;50.890;4.724;2023-04-06T15:06:01;9.40;99.90
30628;DHT22;17394;50.890;4.724;2023-04-06T15:08:27;9.40;99.90
30628;DHT22;17394;50.890;4.724;2023-04-06T15:10:53;9.40;99.90
30628;DHT22;17394;50.890;4.724;2023-04-06T15:13:21;9.40;99.90
30628;DHT22;17394;50.890;4.724;2023-04-06T15:15:49;9.40;99.90
30628;DHT22;17394;50.890;4.724;2023-04-06T15:18:16;9.50;99.90
30628;DHT22;17394;50.890;4.724;2023-04-06T15:20:42;9.50;99.90
30628;DHT22;17394;50.890;4.724;2023-04-06T15:23:08;9.50;99.90
30628;DHT22;17394;50.890;4.724;2023-04-06T15:25:34;9.50;99.90
30628;DHT22;17394;50.890;4.724;2023-04-06T15:28:00;9.50;99.90
30628;DHT22;17394;50.890;4.724;2023-04-06T15:30:26;9.60;99.90
30628;DHT22;17394;50.890;4.724;2023-04-06T15:32:55;9.70;99.90
30628;DHT22;17394;50.890;4.724;2023-04-06T15:35:21;9.70;99.90
30628;DHT22;17394;50.890;4.724;2023-04-06T15:37:47;9.70;99.90